createdAt,value
2023-04-05T00:02:45.197Z,2.70
2023-04-05T00:07:48.127Z,2.70
2023-04-05T00:12:51.126Z,2.60
2023-04-05T00:17:54.294Z,2.60
2023-04-05T00:22:55.946Z,2.70
2023-04-05T00:27:57.550Z,2.60
2023-04-05T00:32:59.261Z,2.60
2023-04-05T00:38:01.023Z,2.60
2023-04-05T00:43:02.706Z,2.70
2023-04-05T00:48:05.601Z,2.70
2023-04-05T00:53:07.318Z,2.70
2023-04-05T00:58:10.193Z,2.60
2023-04-05T01:03:13.695Z,2.70
2023-04-05T01:08:25.462Z,2.70
2023-04-05T01:13:29.065Z,2.70
2023-04-05T01:18:33.018Z,2.70
2023-04-05T01:23:37.916Z,2.70
2023-04-05T01:29:01.016Z,2.80
2023-04-05T01:34:07.748Z,2.80
2023-04-05T01:39:11.728Z,2.80
2023-04-05T01:44:13.286Z,2.80
2023-04-05T01:49:14.934Z,2.80
2023-04-05T01:54:16.574Z,2.80
2023-04-05T01:59:18.279Z,2.80
2023-04-05T02:04:19.921Z,2.80
2023-04-05T02:09:22.573Z,2.70
2023-04-05T02:14:24.536Z,2.70
2023-04-05T02:19:26.475Z,2.70
2023-04-05T02:24:28.141Z,2.60
2023-04-05T02:29:31.682Z,2.60
2023-04-05T02:34:33.614Z,2.50
2023-04-05T02:39:35.320Z,2.50
2023-04-05T02:44:37.157Z,2.40
2023-04-05T02:49:38.818Z,2.30
2023-04-05T02:54:40.930Z,2.10
2023-04-05T02:59:42.746Z,2.10
2023-04-05T03:04:44.881Z,1.90
2023-04-05T03:09:47.502Z,1.90
2023-04-05T03:14:49.208Z,1.80
2023-04-05T03:19:50.877Z,1.70
2023-04-05T03:24:52.556Z,1.60
2023-04-05T03:29:54.315Z,1.50
2023-04-05T03:34:55.962Z,1.40
2023-04-05T03:39:57.666Z,1.30
2023-04-05T03:44:59.964Z,1.30
2023-04-05T03:50:02.832Z,1.20
2023-04-05T03:55:04.800Z,1.10
2023-04-05T04:00:17.326Z,1.00
2023-04-05T04:05:19.175Z,1.00
2023-04-05T04:10:20.967Z,0.90
2023-04-05T04:15:22.722Z,0.90
2023-04-05T04:20:24.541Z,0.90
2023-04-05T04:25:30.603Z,0.90
2023-04-05T04:30:34.853Z,0.90
2023-04-05T04:35:38.844Z,0.90
2023-04-05T04:40:41.542Z,0.80
2023-04-05T04:45:47.017Z,0.90
2023-04-05T04:50:49.933Z,0.80
2023-04-05T04:55:51.633Z,0.80
2023-04-05T05:00:53.426Z,0.80
2023-04-05T05:05:55.065Z,0.70
2023-04-05T05:10:56.867Z,0.70
2023-04-05T05:16:00.387Z,0.80
2023-04-05T05:21:02.006Z,0.80
2023-04-05T05:26:03.773Z,0.80
2023-04-05T05:31:06.101Z,0.70
2023-04-05T05:36:07.976Z,0.80
2023-04-05T05:41:09.636Z,0.80
2023-04-05T05:46:11.524Z,0.80
2023-04-05T05:51:13.792Z,0.80
2023-04-05T05:56:15.554Z,0.90
2023-04-05T06:01:17.433Z,1.00
2023-04-05T06:06:19.011Z,1.10
2023-04-05T06:11:21.778Z,1.30
2023-04-05T06:16:23.533Z,1.40
2023-04-05T06:21:25.215Z,1.50
2023-04-05T06:26:29.852Z,1.60
2023-04-05T06:31:32.417Z,1.70
2023-04-05T06:36:34.606Z,1.80
2023-04-05T06:41:36.355Z,1.90
2023-04-05T06:46:38.063Z,2.20
2023-04-05T06:51:39.707Z,2.40
2023-04-05T06:56:41.562Z,2.60
2023-04-05T07:01:43.226Z,2.90
2023-04-05T07:06:44.913Z,3.10
2023-04-05T07:11:46.846Z,3.40
2023-04-05T07:16:49.663Z,3.80
2023-04-05T07:21:51.748Z,3.90
2023-04-05T07:26:53.351Z,4.00
2023-04-05T07:31:54.952Z,4.30
2023-04-05T07:36:56.802Z,4.50
2023-04-05T07:41:58.421Z,4.80
2023-04-05T07:47:00.289Z,5.00
2023-04-05T07:52:02.084Z,5.10
2023-04-05T07:57:03.777Z,5.40
2023-04-05T08:02:14.282Z,5.70
2023-04-05T08:07:16.709Z,5.80
2023-04-05T08:12:18.388Z,6.50
2023-04-05T08:17:20.329Z,6.80
2023-04-05T08:22:22.114Z,7.10
2023-04-05T08:27:23.867Z,7.80
2023-04-05T08:32:25.573Z,8.30
2023-04-05T08:37:27.904Z,8.60
2023-04-05T08:42:32.013Z,8.60
2023-04-05T08:47:34.824Z,8.90
2023-04-05T08:52:38.253Z,9.40
2023-04-05T08:57:43.075Z,9.50
2023-04-05T09:02:46.192Z,9.50
2023-04-05T09:07:48.018Z,9.90
2023-04-05T09:12:52.581Z,9.70
2023-04-05T09:17:55.356Z,10.10
2023-04-05T09:22:57.562Z,9.70
2023-04-05T09:28:00.029Z,9.60
2023-04-05T09:33:01.820Z,10.20
2023-04-05T09:38:05.378Z,10.20
2023-04-05T09:43:07.056Z,10.20
2023-04-05T09:48:09.469Z,10.40
2023-04-05T09:53:16.000Z,10.50
2023-04-05T09:58:22.039Z,10.40
2023-04-05T10:03:25.820Z,10.30
2023-04-05T10:08:27.803Z,10.90
2023-04-05T10:13:31.393Z,11.10
2023-04-05T10:18:39.743Z,11.20
2023-04-05T10:23:44.593Z,11.20
2023-04-05T10:28:48.731Z,10.70
2023-04-05T10:33:55.851Z,10.90
2023-04-05T10:39:04.740Z,11.10
2023-04-05T10:44:15.221Z,11.60
2023-04-05T10:49:24.555Z,11.70
2023-04-05T10:54:26.482Z,11.60
2023-04-05T10:59:29.587Z,11.60
2023-04-05T11:04:40.208Z,11.60
2023-04-05T11:09:56.604Z,11.30
2023-04-05T11:15:18.275Z,11.40
2023-04-05T11:20:19.890Z,11.50
2023-04-05T11:25:24.816Z,11.30
2023-04-05T11:30:44.873Z,11.70
2023-04-05T11:36:00.087Z,11.70
2023-04-05T11:41:05.642Z,12.00
2023-04-05T11:46:07.508Z,12.50
2023-04-05T11:51:12.575Z,12.20
2023-04-05T11:56:16.007Z,12.30
2023-04-05T12:01:18.856Z,12.00
2023-04-05T12:06:25.804Z,12.40
2023-04-05T12:11:28.306Z,12.80
2023-04-05T12:16:30.031Z,12.70
2023-04-05T12:21:32.609Z,12.60
2023-04-05T12:26:37.503Z,13.10
2023-04-05T12:31:40.068Z,12.80
2023-04-05T12:36:46.042Z,12.50
2023-04-05T12:41:58.756Z,12.50
2023-04-05T12:47:02.338Z,12.70
2023-04-05T12:52:04.039Z,12.60
2023-04-05T12:57:09.126Z,12.20
2023-04-05T13:02:10.896Z,12.80
2023-04-05T13:07:12.573Z,13.40
2023-04-05T13:12:14.622Z,13.30
2023-04-05T13:17:16.249Z,12.60
2023-04-05T13:22:17.922Z,13.30
2023-04-05T13:27:21.477Z,13.10
2023-04-05T13:32:23.549Z,13.20
2023-04-05T13:37:25.513Z,13.00
2023-04-05T13:42:27.197Z,12.80
2023-04-05T13:47:28.927Z,12.50
2023-04-05T13:52:30.645Z,12.70
2023-04-05T13:57:32.510Z,12.90
2023-04-05T14:02:34.202Z,12.90
2023-04-05T14:07:35.965Z,12.70
2023-04-05T14:12:37.671Z,13.00
2023-04-05T14:17:39.286Z,12.80
2023-04-05T14:22:40.994Z,13.10
2023-04-05T14:27:42.801Z,13.00
2023-04-05T14:32:45.281Z,12.60
2023-04-05T14:37:46.962Z,12.90
2023-04-05T14:42:50.241Z,12.60
2023-04-05T14:47:52.216Z,12.50
2023-04-05T14:52:53.980Z,12.20
2023-04-05T14:57:55.679Z,11.80
2023-04-05T15:02:58.132Z,11.50
2023-04-05T15:07:59.945Z,11.70
2023-04-05T15:13:01.591Z,11.80
2023-04-05T15:18:03.487Z,11.70
2023-04-05T15:23:05.363Z,11.70
2023-04-05T15:28:07.298Z,11.70
2023-04-05T15:33:09.067Z,11.50
2023-04-05T15:38:10.749Z,11.60
2023-04-05T15:43:12.431Z,11.50
2023-04-05T15:48:14.060Z,11.60
2023-04-05T15:53:15.934Z,11.40
2023-04-05T15:58:17.663Z,11.50
2023-04-05T16:03:19.493Z,11.50
2023-04-05T16:08:21.187Z,11.50
2023-04-05T16:13:23.236Z,11.40
2023-04-05T16:18:25.980Z,11.40
2023-04-05T16:23:27.739Z,11.30
2023-04-05T16:28:29.470Z,11.30
2023-04-05T16:33:31.352Z,11.20
2023-04-05T16:38:32.951Z,11.10
2023-04-05T16:43:34.697Z,11.20
2023-04-05T16:48:36.442Z,11.10
2023-04-05T16:53:38.069Z,11.10
2023-04-05T16:58:39.761Z,11.10
2023-04-05T17:03:42.179Z,11.00
2023-04-05T17:08:44.991Z,10.90
2023-04-05T17:13:47.017Z,10.80
2023-04-05T17:18:48.662Z,10.80
2023-04-05T17:23:50.310Z,10.80
2023-04-05T17:28:51.942Z,10.70
2023-04-05T17:33:53.665Z,10.50
2023-04-05T17:38:55.355Z,10.40
2023-04-05T17:43:57.242Z,10.30
2023-04-05T17:48:58.994Z,10.20
2023-04-05T17:54:00.700Z,10.00
2023-04-05T17:59:03.909Z,9.90
2023-04-05T18:04:06.322Z,9.80
2023-04-05T18:09:08.720Z,9.60
2023-04-05T18:14:10.667Z,9.50
2023-04-05T18:19:12.334Z,9.40
2023-04-05T18:24:14.318Z,9.20
2023-04-05T18:29:16.197Z,8.90
2023-04-05T18:34:18.415Z,8.80
2023-04-05T18:39:20.901Z,8.60
2023-04-05T18:44:22.564Z,8.50
2023-04-05T18:49:24.249Z,8.40
2023-04-05T18:54:26.098Z,8.30
2023-04-05T18:59:29.344Z,8.10
2023-04-05T19:04:31.542Z,7.90
2023-04-05T19:09:33.247Z,7.70
2023-04-05T19:14:35.024Z,7.60
2023-04-05T19:19:36.806Z,7.40
2023-04-05T19:24:39.733Z,7.20
2023-04-05T19:29:41.462Z,7.10
2023-04-05T19:34:43.142Z,7.00
2023-04-05T19:39:45.633Z,6.90
2023-04-05T19:44:59.914Z,6.80
2023-04-05T19:50:01.797Z,6.70
2023-04-05T19:55:22.082Z,6.60
2023-04-05T20:00:36.057Z,6.30
2023-04-05T20:05:43.598Z,6.30
2023-04-05T20:10:49.134Z,6.20
2023-04-05T20:15:51.194Z,6.10
2023-04-05T20:20:53.968Z,5.90
2023-04-05T20:25:55.630Z,5.80
2023-04-05T20:30:57.498Z,5.50
2023-04-05T20:35:59.234Z,5.50
2023-04-05T20:41:01.059Z,5.50
2023-04-05T20:46:03.382Z,5.50
2023-04-05T20:51:06.485Z,5.30
2023-04-05T20:56:09.123Z,5.30
2023-04-05T21:01:10.919Z,5.40
2023-04-05T21:06:12.656Z,5.20
2023-04-05T21:11:14.363Z,5.30
2023-04-05T21:16:16.550Z,5.30
2023-04-05T21:21:18.349Z,5.10
2023-04-05T21:26:20.058Z,5.00
2023-04-05T21:31:21.734Z,4.90
2023-04-05T21:36:23.489Z,4.80
2023-04-05T21:41:25.115Z,4.60
2023-04-05T21:46:27.085Z,4.60
2023-04-05T21:51:28.733Z,4.50
2023-04-05T21:56:30.441Z,4.50
2023-04-05T22:01:32.234Z,4.50
2023-04-05T22:06:33.857Z,4.60
2023-04-05T22:11:35.911Z,4.60
2023-04-05T22:16:38.385Z,4.60
2023-04-05T22:21:41.147Z,4.50
2023-04-05T22:26:42.927Z,4.50
2023-04-05T22:31:44.663Z,4.50
2023-04-05T22:36:46.344Z,4.40
2023-04-05T22:41:47.942Z,4.30
2023-04-05T22:46:49.687Z,4.20
2023-04-05T22:51:51.317Z,4.20
2023-04-05T22:56:53.033Z,4.20
2023-04-05T23:01:54.763Z,4.00
2023-04-05T23:06:56.479Z,4.00
2023-04-05T23:11:58.104Z,4.00
2023-04-05T23:17:00.946Z,3.90
2023-04-05T23:22:02.604Z,4.00
2023-04-05T23:27:04.204Z,4.00
2023-04-05T23:32:06.863Z,3.90
2023-04-05T23:37:08.461Z,3.80
2023-04-05T23:42:10.087Z,3.80
2023-04-05T23:47:11.766Z,3.70
2023-04-05T23:52:13.569Z,3.70
2023-04-05T23:57:15.722Z,3.60
